Hawley Lake, Arizona
Current Conditions -  °F | °C
As of 11:35 PM on Tuesday 25 Nov 2014 (Local Time) from KSOW Reporting Station
Clear Clear  
Wind Chill: 26°   Ceiling: Unl
Heat Index: 32°   Visibility: 10mi
Dew Point:   Wind: 7mph
Humidity: 25%   Direction: 90°E
Pressure: 30.42"   Gusts: NA
Location:  33.9836°N, 109.746°W
Report Text: KSOW 260635Z AUTO 09006KT 10SM CLR 00/M18 A3042 RMK AO2
Loading
Personal Weather Stations






























Interactive Weather Map New forecast layout! Learn more

10-Day Weather Forecast

Advertisements
Track Severe Weather on mobile